Time;durP1;ratioP1;P1;durP2;ratioP2;P2;SDS_P1;SDS_P2;PMS_P1;PMS_P2;Temp;Humidity;BMP_temperature;BMP_pressure;BME280_temperature;BME280_humidity;BME280_pressure;Samples;Min_cycle;Max_cycle;Signal;HPM_P1;HPM_P2
2022/08/15 00:01:09;;;;;;;4.95;2.17;;;24.20;74.20;;;;;;4954221;29;20034;-54
2022/08/15 00:03:38;;;;;;;6.43;2.20;;;24.20;74.00;;;;;;4954025;28;20027;-56
2022/08/15 00:06:09;;;;;;;6.18;2.08;;;24.20;73.80;;;;;;4953748;28;20024;-56
2022/08/15 00:08:38;;;;;;;3.80;1.75;;;24.30;73.80;;;;;;4953927;28;20054;-54
2022/08/15 00:11:13;;;;;;;3.78;2.00;;;24.40;74.00;;;;;;4953705;28;20027;-55
2022/08/15 00:13:39;;;;;;;7.35;2.00;;;24.40;73.80;;;;;;4952741;29;20039;-56
2022/08/15 00:16:06;;;;;;;3.75;1.95;;;24.40;73.70;;;;;;4953914;28;20163;-56
2022/08/15 00:18:32;;;;;;;2.22;2.03;;;24.40;73.90;;;;;;4953765;28;20062;-52
2022/08/15 00:21:00;;;;;;;5.35;1.85;;;24.40;74.30;;;;;;4953605;28;20032;-53
2022/08/15 00:23:26;;;;;;;5.78;2.13;;;24.40;73.80;;;;;;4953532;28;20459;-56
2022/08/15 00:25:57;;;;;;;3.45;1.98;;;24.40;75.20;;;;;;4953592;28;20114;-56
2022/08/15 00:28:23;;;;;;;3.85;1.92;;;24.40;73.70;;;;;;4953739;28;20035;-57
2022/08/15 00:30:49;;;;;;;6.07;2.35;;;24.50;74.00;;;;;;4952074;29;20034;-56
2022/08/15 00:33:15;;;;;;;4.40;1.88;;;24.40;74.30;;;;;;4953484;29;20035;-56
2022/08/15 00:35:42;;;;;;;6.60;2.70;;;24.40;74.70;;;;;;4953290;28;20082;-52
2022/08/15 00:38:20;;;;;;;5.72;2.10;;;24.30;75.30;;;;;;4953442;28;20031;-54
2022/08/15 00:43:36;;;;;;;9.45;2.67;;;24.10;76.60;;;;;;4953359;29;20507;-55
2022/08/15 00:46:04;;;;;;;8.98;2.75;;;24.10;77.40;;;;;;4953229;28;20035;-57
2022/08/15 00:48:42;;;;;;;4.97;2.55;;;24.00;78.00;;;;;;4952274;29;20035;-55
2022/08/15 00:51:13;;;;;;;4.57;2.10;;;24.00;78.70;;;;;;4953324;28;20511;-55
2022/08/15 00:53:44;;;;;;;5.15;2.20;;;24.00;79.20;;;;;;4953054;28;20038;-56
2022/08/15 00:56:11;;;;;;;5.38;2.58;;;24.00;79.70;;;;;;4953071;28;20042;-55
2022/08/15 00:58:38;;;;;;;3.63;2.00;;;24.00;80.40;;;;;;4953357;28;20055;-54
2022/08/15 01:01:04;;;;;;;15.30;2.60;;;24.00;81.10;;;;;;4953144;28;20480;-54
2022/08/15 01:03:33;;;;;;;6.82;2.75;;;24.00;81.60;;;;;;4952043;29;20440;-56
2022/08/15 01:06:01;;;;;;;10.20;2.63;;;24.00;82.10;;;;;;4952591;28;20035;-55
2022/08/15 01:08:31;;;;;;;4.55;2.70;;;24.00;82.60;;;;;;4952012;29;20049;-56
2022/08/15 01:10:58;;;;;;;8.90;2.63;;;24.00;83.00;;;;;;4953004;28;20102;-57
2022/08/15 01:13:25;;;;;;;8.55;3.50;;;24.00;83.30;;;;;;4952745;28;20122;-54
2022/08/15 01:15:51;;;;;;;6.57;2.65;;;24.00;83.60;;;;;;4951814;28;20027;-55
2022/08/15 01:18:16;;;;;;;3.97;2.53;;;24.00;83.90;;;;;;4951957;29;20110;-51
2022/08/15 01:20:43;;;;;;;3.75;2.40;;;24.00;84.20;;;;;;4953364;28;20031;-53
2022/08/15 01:23:59;;;;;;;4.00;2.95;;;24.00;84.60;;;;;;4952997;28;20089;-51
2022/08/15 01:26:26;;;;;;;7.50;2.70;;;23.90;85.00;;;;;;4897631;29;20025;-55
2022/08/15 01:28:53;;;;;;;9.02;2.33;;;23.90;85.40;;;;;;4897708;29;20380;-55
2022/08/15 01:31:21;;;;;;;8.27;2.50;;;23.80;85.90;;;;;;4915399;29;20031;-54
2022/08/15 01:33:50;;;;;;;9.35;2.85;;;23.80;86.50;;;;;;4956375;28;20523;-57
2022/08/15 01:36:17;;;;;;;11.20;2.53;;;23.80;88.10;;;;;;4956401;28;20023;-55
2022/08/15 01:38:48;;;;;;;11.00;3.90;;;23.70;89.90;;;;;;4956650;28;20027;-55
2022/08/15 01:41:18;;;;;;;10.15;2.88;;;23.70;90.90;;;;;;4955142;29;20030;-55
2022/08/15 01:43:58;;;;;;;8.32;3.08;;;23.60;91.70;;;;;;4956133;29;20031;-52
2022/08/15 01:46:29;;;;;;;7.70;3.05;;;23.50;92.60;;;;;;4956261;28;20034;-55
2022/08/15 01:49:03;;;;;;;8.93;3.00;;;23.30;93.40;;;;;;4956404;28;20114;-57
2022/08/15 01:51:29;;;;;;;6.97;2.90;;;23.30;94.20;;;;;;4956293;28;20031;-58
2022/08/15 01:54:05;;;;;;;12.40;2.70;;;23.20;94.80;;;;;;4954673;29;20019;-57
2022/08/15 01:56:35;;;;;;;5.25;2.60;;;23.20;95.40;;;;;;4956174;28;20085;-56
2022/08/15 01:59:03;;;;;;;9.10;3.10;;;23.20;95.80;;;;;;4956142;28;20024;-53
2022/08/15 02:01:50;;;;;;;5.05;3.10;;;23.20;96.10;;;;;;4954829;29;20115;-50
2022/08/15 02:04:18;;;;;;;11.00;3.85;;;23.10;96.50;;;;;;4956036;28;20027;-57
2022/08/15 02:06:44;;;;;;;6.90;3.13;;;23.20;96.50;;;;;;4955716;28;20535;-56
2022/08/15 02:09:15;;;;;;;10.90;3.53;;;23.20;96.50;;;;;;4956129;28;20035;-54
2022/08/15 02:11:41;;;;;;;4.03;2.85;;;23.20;96.70;;;;;;4955762;28;20027;-55
2022/08/15 02:14:07;;;;;;;6.50;3.63;;;23.30;96.90;;;;;;4955572;28;20117;-55
2022/08/15 02:16:35;;;;;;;10.18;2.97;;;23.30;96.90;;;;;;4955836;28;20031;-57
2022/08/15 02:19:03;;;;;;;7.93;3.65;;;23.30;97.00;;;;;;4955827;28;20020;-53
2022/08/15 02:21:29;;;;;;;7.03;3.30;;;23.30;97.20;;;;;;4954499;29;20027;-58
2022/08/15 02:23:56;;;;;;;8.60;2.90;;;23.30;97.40;;;;;;4955461;28;20107;-54
2022/08/15 02:26:22;;;;;;;6.68;3.15;;;23.40;97.50;;;;;;4955632;28;20114;-55
2022/08/15 02:28:48;;;;;;;9.25;4.32;;;23.40;97.60;;;;;;4955762;28;20031;-57
2022/08/15 02:31:17;;;;;;;9.52;3.40;;;23.40;97.50;;;;;;4955603;29;20034;-56
2022/08/15 02:33:48;;;;;;;6.80;2.90;;;23.40;97.80;;;;;;4955402;28;20484;-54
2022/08/15 02:36:16;;;;;;;9.13;4.07;;;23.40;97.70;;;;;;4954366;28;20394;-54
2022/08/15 02:38:46;;;;;;;10.90;3.05;;;23.40;97.80;;;;;;4956007;28;20027;-54
2022/08/15 02:41:13;;;;;;;12.13;3.15;;;23.40;97.80;;;;;;4955415;28;20023;-56
2022/08/15 02:43:43;;;;;;;4.68;2.75;;;23.40;97.90;;;;;;4955248;28;20031;-54
2022/08/15 02:46:10;;;;;;;10.45;2.88;;;23.40;97.90;;;;;;4955301;28;20031;-51
2022/08/15 02:48:36;;;;;;;7.32;3.38;;;23.40;98.00;;;;;;4955405;28;20027;-55
2022/08/15 02:51:05;;;;;;;8.00;3.13;;;23.40;97.90;;;;;;4955218;28;20086;-55
2022/08/15 02:53:30;;;;;;;3.42;2.67;;;23.50;97.90;;;;;;4954921;28;20020;-56
2022/08/15 02:55:57;;;;;;;7.55;2.92;;;23.50;97.70;;;;;;4955166;28;20078;-55
2022/08/15 02:58:22;;;;;;;10.35;3.30;;;23.50;97.70;;;;;;4955132;28;20136;-56
2022/08/15 03:00:48;;;;;;;8.18;3.15;;;23.50;97.70;;;;;;4953921;29;20167;-54
2022/08/15 03:03:15;;;;;;;10.27;4.60;;;23.50;97.70;;;;;;4954661;29;20485;-55
2022/08/15 03:05:44;;;;;;;6.55;3.00;;;23.40;97.80;;;;;;4954935;28;20063;-54
2022/08/15 03:08:11;;;;;;;7.15;2.90;;;23.40;97.90;;;;;;4954996;28;20023;-55
2022/08/15 03:10:38;;;;;;;7.50;3.10;;;23.40;98.00;;;;;;4955090;28;20463;-54
2022/08/15 03:13:13;;;;;;;5.70;3.00;;;23.40;98.10;;;;;;4954485;28;20050;-57
2022/08/15 03:15:48;;;;;;;6.40;3.15;;;23.40;98.10;;;;;;4953854;28;20519;-51
2022/08/15 03:18:15;;;;;;;8.68;3.08;;;23.40;98.20;;;;;;4954669;28;20037;-53
2022/08/15 03:20:42;;;;;;;4.35;2.97;;;23.30;98.20;;;;;;4955135;28;20023;-54
2022/08/15 03:23:08;;;;;;;6.45;3.15;;;23.40;98.20;;;;;;4954613;28;20047;-56
2022/08/15 03:25:48;;;;;;;10.93;3.60;;;23.30;98.30;;;;;;4955030;28;20027;-56
2022/08/15 03:28:18;;;;;;;12.98;2.90;;;23.40;98.20;;;;;;4954727;28;20031;-57
2022/08/15 03:30:43;;;;;;;6.10;3.40;;;23.30;98.10;;;;;;4954699;28;20031;-53
2022/08/15 03:33:09;;;;;;;6.95;2.78;;;23.30;98.20;;;;;;4954251;29;20031;-56
2022/08/15 03:35:41;;;;;;;5.93;2.90;;;23.30;98.30;;;;;;4954394;28;20034;-56
2022/08/15 03:38:07;;;;;;;5.60;3.40;;;23.30;98.40;;;;;;4954388;28;20019;-54
2022/08/15 03:40:34;;;;;;;4.15;2.55;;;23.30;98.40;;;;;;4954333;29;20608;-57
2022/08/15 03:43:04;;;;;;;3.67;2.90;;;23.20;98.50;;;;;;4953953;28;20023;-52
2022/08/15 03:45:29;;;;;;;6.22;2.97;;;23.20;98.50;;;;;;4954344;28;20039;-54
2022/08/15 03:47:55;;;;;;;5.82;3.42;;;23.20;98.40;;;;;;4952754;28;20031;-55
2022/08/15 03:50:21;;;;;;;9.52;2.90;;;23.20;98.40;;;;;;4954302;28;20489;-55
2022/08/15 03:52:52;;;;;;;4.40;2.83;;;23.20;98.30;;;;;;4953683;29;20032;-57
2022/08/15 03:55:18;;;;;;;4.03;2.70;;;23.20;98.40;;;;;;4954166;28;20031;-55
2022/08/15 03:57:44;;;;;;;11.55;3.17;;;23.20;98.60;;;;;;4954253;28;20037;-53
2022/08/15 04:00:11;;;;;;;5.88;2.40;;;23.10;98.70;;;;;;4954112;28;20388;-57
2022/08/15 04:02:37;;;;;;;9.32;3.00;;;23.10;98.80;;;;;;4953911;28;20031;-52
2022/08/15 04:05:04;;;;;;;6.57;2.97;;;23.10;99.00;;;;;;4953525;28;20113;-55
2022/08/15 04:07:32;;;;;;;4.13;2.75;;;23.00;99.10;;;;;;4954021;28;20019;-53
2022/08/15 04:09:58;;;;;;;9.02;2.65;;;23.10;99.20;;;;;;4954023;28;20065;-57
2022/08/15 04:12:35;;;;;;;2.92;2.40;;;23.10;99.10;;;;;;4953438;28;20030;-55
2022/08/15 04:15:04;;;;;;;3.92;2.60;;;23.00;99.30;;;;;;4953768;28;20033;-57
2022/08/15 04:17:30;;;;;;;6.78;2.50;;;22.90;99.50;;;;;;4953467;29;20489;-58
2022/08/15 04:19:55;;;;;;;4.63;2.65;;;22.90;99.50;;;;;;4953588;29;20019;-54
2022/08/15 04:22:31;;;;;;;9.05;3.00;;;22.80;99.50;;;;;;4953257;29;20024;-53
2022/08/15 04:25:11;;;;;;;3.45;2.35;;;22.90;99.60;;;;;;4953644;28;20035;-55
2022/08/15 04:27:38;;;;;;;5.55;2.30;;;22.90;99.40;;;;;;4952317;29;20035;-55
2022/08/15 04:30:05;;;;;;;3.97;2.35;;;22.90;99.50;;;;;;4952302;29;20057;-54
2022/08/15 04:32:31;;;;;;;4.32;2.45;;;22.90;99.30;;;;;;4951834;29;20144;-56
2022/08/15 04:34:59;;;;;;;7.70;2.70;;;22.80;99.80;;;;;;4953398;28;20538;-54
2022/08/15 04:37:25;;;;;;;4.70;2.70;;;22.70;99.60;;;;;;4953403;28;20023;-55
2022/08/15 04:39:51;;;;;;;4.43;2.63;;;22.80;99.60;;;;;;4953833;28;20029;-56
2022/08/15 04:42:19;;;;;;;3.85;3.13;;;22.80;99.90;;;;;;4953064;28;20078;-54
2022/08/15 04:44:47;;;;;;;4.65;2.22;;;22.80;99.50;;;;;;4953162;28;20030;-52
2022/08/15 04:47:14;;;;;;;6.03;3.92;;;22.70;99.50;;;;;;4952154;29;20031;-52
2022/08/15 04:49:40;;;;;;;2.58;2.10;;;22.70;99.60;;;;;;4952052;29;20027;-53
2022/08/15 04:52:18;;;;;;;3.63;2.65;;;22.70;99.50;;;;;;4953014;28;20083;-56
2022/08/15 04:54:43;;;;;;;3.70;2.30;;;22.70;99.60;;;;;;4952874;28;20404;-57
2022/08/15 04:57:10;;;;;;;6.32;3.35;;;22.80;99.50;;;;;;4953270;28;20122;-57
2022/08/15 04:59:36;;;;;;;8.57;2.90;;;22.80;99.30;;;;;;4956026;28;20062;-56
2022/08/15 05:02:12;;;;;;;6.60;2.38;;;22.80;99.40;;;;;;4956911;28;20445;-58
2022/08/15 05:04:38;;;;;;;4.10;2.15;;;22.70;99.50;;;;;;4957061;28;20057;-55
2022/08/15 05:07:04;;;;;;;3.88;2.30;;;22.70;99.60;;;;;;4955669;29;20463;-55
2022/08/15 05:09:30;;;;;;;2.70;2.00;;;22.70;99.60;;;;;;4957415;28;20115;-54
2022/08/15 05:11:56;;;;;;;10.77;2.25;;;22.70;99.60;;;;;;4956765;29;20027;-52
2022/08/15 05:14:21;;;;;;;3.08;2.70;;;22.70;99.70;;;;;;4956831;28;20024;-57
2022/08/15 05:16:47;;;;;;;2.50;2.22;;;22.70;99.70;;;;;;4957003;28;20078;-54
2022/08/15 05:19:12;;;;;;;5.72;2.70;;;22.70;99.80;;;;;;4955731;29;20497;-53
2022/08/15 05:21:39;;;;;;;6.75;2.47;;;22.70;99.80;;;;;;4956851;29;20098;-57
2022/08/15 05:24:05;;;;;;;6.38;2.53;;;22.60;99.90;;;;;;4956765;28;20028;-55
2022/08/15 05:26:32;;;;;;;10.93;2.80;;;22.60;99.90;;;;;;4956700;28;20070;-56
2022/08/15 05:28:58;;;;;;;6.65;3.45;;;22.70;99.90;;;;;;4956907;28;20453;-55
2022/08/15 05:31:25;;;;;;;3.88;2.60;;;22.70;99.90;;;;;;4956924;28;20489;-57
2022/08/15 05:33:51;;;;;;;3.13;2.58;;;22.70;99.90;;;;;;4955231;29;20196;-54
2022/08/15 05:36:18;;;;;;;10.18;2.97;;;22.60;99.90;;;;;;4956547;28;20151;-55
2022/08/15 05:38:58;;;;;;;5.68;2.60;;;22.60;99.90;;;;;;4956698;28;20035;-56
2022/08/15 05:41:36;;;;;;;5.93;2.97;;;22.50;99.90;;;;;;4955521;29;20019;-51
2022/08/15 05:44:35;;;;;;;10.73;3.00;;;22.50;99.90;;;;;;4956215;28;20035;-53
2022/08/15 05:47:03;;;;;;;8.23;2.92;;;22.60;99.90;;;;;;4957743;28;20035;-53
2022/08/15 05:49:47;;;;;;;3.58;2.67;;;22.50;99.90;;;;;;4956392;29;20117;-53
2022/08/15 05:52:34;;;;;;;13.95;2.78;;;22.50;99.90;;;;;;4954954;29;20031;-51
2022/08/15 05:55:21;;;;;;;5.30;2.88;;;22.60;99.90;;;;;;4956144;28;20027;-58
2022/08/15 05:57:49;;;;;;;4.82;2.60;;;22.60;99.90;;;;;;4956428;28;20412;-56
2022/08/15 06:00:16;;;;;;;6.18;3.00;;;22.60;99.90;;;;;;4956096;29;20102;-53
2022/08/15 06:02:49;;;;;;;5.57;3.00;;;22.70;99.90;;;;;;4955921;28;20020;-57
2022/08/15 06:05:25;;;;;;;8.02;3.20;;;22.70;99.90;;;;;;4955707;28;20023;-54
2022/08/15 06:07:52;;;;;;;5.63;2.63;;;22.80;99.90;;;;;;4956339;28;20082;-53
2022/08/15 06:10:29;;;;;;;7.80;2.80;;;22.90;99.90;;;;;;4955939;28;20035;-55
2022/08/15 06:13:04;;;;;;;6.25;2.83;;;23.10;99.90;;;;;;4955810;28;20034;-55
2022/08/15 06:15:58;;;;;;;4.63;2.67;;;23.20;99.90;;;;;;4957084;28;20047;-54
2022/08/15 06:18:26;;;;;;;7.68;3.38;;;23.40;99.90;;;;;;4959159;28;20053;-56
2022/08/15 06:21:15;;;;;;;5.40;3.00;;;23.60;99.90;;;;;;4968355;28;20024;-54
2022/08/15 06:24:03;;;;;;;7.47;2.85;;;23.90;99.90;;;;;;4968211;28;20023;-56
2022/08/15 06:26:36;;;;;;;7.32;2.97;;;24.20;99.80;;;;;;4947825;29;20019;-56
2022/08/15 06:29:37;;;;;;;6.07;3.40;;;24.60;99.40;;;;;;4948261;29;20079;-56
2022/08/15 06:32:09;;;;;;;9.40;3.13;;;24.70;99.20;;;;;;4925332;29;20032;-57
2022/08/15 06:34:58;;;;;;;7.35;2.70;;;24.90;99.40;;;;;;4941325;29;20118;-51
2022/08/15 06:37:42;;;;;;;5.82;3.10;;;25.30;99.00;;;;;;4951511;29;20040;-55
2022/08/15 06:40:33;;;;;;;8.20;3.28;;;26.70;97.10;;;;;;4955514;28;20141;-56
2022/08/15 06:42:59;;;;;;;7.32;3.58;;;27.60;94.40;;;;;;4953339;29;20035;-56
2022/08/15 06:45:28;;;;;;;4.20;2.80;;;28.10;93.70;;;;;;4955202;28;20043;-54
2022/08/15 06:48:06;;;;;;;3.92;2.47;;;28.30;93.10;;;;;;4955510;28;20540;-55
2022/08/15 06:50:37;;;;;;;2.92;2.58;;;28.20;93.60;;;;;;4955301;28;20042;-52
2022/08/15 06:53:14;;;;;;;4.45;2.38;;;27.80;93.30;;;;;;4955938;28;20035;-57
2022/08/15 06:56:02;;;;;;;7.72;2.95;;;27.50;93.80;;;;;;4946791;28;20043;-56
2022/08/15 06:58:51;;;;;;;5.80;2.63;;;27.20;94.60;;;;;;4955158;29;20151;-53
2022/08/15 07:01:23;;;;;;;7.97;3.45;;;26.80;95.00;;;;;;4955043;28;20023;-56
2022/08/15 07:04:26;;;;;;;6.72;2.53;;;26.40;95.60;;;;;;4954818;28;20155;-56
2022/08/15 07:07:04;;;;;;;5.88;2.78;;;25.90;96.70;;;;;;4954612;28;20031;-57
2022/08/15 07:09:43;;;;;;;5.03;2.95;;;25.50;97.70;;;;;;4954355;28;20031;-54
2022/08/15 07:12:20;;;;;;;4.40;2.45;;;25.30;98.00;;;;;;4954551;28;20108;-52
2022/08/15 07:15:25;;;;;;;3.17;2.42;;;25.30;98.50;;;;;;4958614;29;20437;-53
2022/08/15 07:18:00;;;;;;;7.03;2.80;;;25.10;98.90;;;;;;4918534;29;20035;-53
2022/08/15 07:20:26;;;;;;;4.78;2.88;;;25.00;99.00;;;;;;4935314;29;20083;-57
2022/08/15 07:22:52;;;;;;;5.25;2.80;;;24.80;99.60;;;;;;4934466;29;20461;-56
2022/08/15 07:25:24;;;;;;;8.80;2.83;;;24.70;99.90;;;;;;4935217;29;20035;-50
2022/08/15 07:28:02;;;;;;;5.55;2.72;;;24.70;99.90;;;;;;4950193;29;20063;-50
2022/08/15 07:30:44;;;;;;;5.28;3.13;;;24.80;99.90;;;;;;4933923;29;20032;-56
2022/08/15 07:33:29;;;;;;;4.32;2.83;;;24.80;99.90;;;;;;4935077;29;20028;-53
2022/08/15 07:36:13;;;;;;;5.60;2.95;;;24.60;99.90;;;;;;4935521;29;20493;-57
2022/08/15 07:38:38;;;;;;;8.88;2.67;;;24.50;99.90;;;;;;4935286;29;20067;-56
2022/08/15 07:41:23;;;;;;;4.93;2.60;;;24.60;99.90;;;;;;4935065;29;20066;-54
2022/08/15 07:43:57;;;;;;;16.77;4.43;;;24.90;99.90;;;;;;4934831;29;20339;-52
2022/08/15 07:46:44;;;;;;;5.93;2.65;;;25.10;99.90;;;;;;4935055;29;20418;-55
2022/08/15 07:49:17;;;;;;;5.50;2.83;;;25.10;99.90;;;;;;4935318;29;20389;-52
2022/08/15 07:51:49;;;;;;;3.47;2.80;;;24.90;99.90;;;;;;4933738;29;20048;-54
2022/08/15 07:54:26;;;;;;;3.97;2.83;;;24.80;99.90;;;;;;4934968;29;20023;-54
2022/08/15 07:56:57;;;;;;;11.70;4.32;;;24.90;99.90;;;;;;4934905;29;20034;-55
2022/08/15 07:59:28;;;;;;;8.68;3.42;;;25.30;99.70;;;;;;4934969;29;20027;-54
2022/08/15 08:02:20;;;;;;;4.20;2.80;;;26.10;98.50;;;;;;4934495;29;20445;-55
2022/08/15 08:04:46;;;;;;;3.95;2.88;;;26.40;97.40;;;;;;4933501;29;20083;-56
2022/08/15 08:07:28;;;;;;;3.70;2.40;;;26.40;97.30;;;;;;4934556;29;20032;-52
2022/08/15 08:10:03;;;;;;;3.92;3.30;;;26.10;97.50;;;;;;4935052;29;20496;-57
2022/08/15 08:13:22;;;;;;;6.55;2.70;;;25.60;98.40;;;;;;4934018;29;20083;-56
2022/08/15 08:16:08;;;;;;;4.65;3.15;;;25.10;99.30;;;;;;4857108;29;20546;-54
2022/08/15 08:18:52;;;;;;;7.45;2.92;;;25.00;99.40;;;;;;4929659;29;20094;-52
2022/08/15 08:21:43;;;;;;;8.43;3.60;;;25.40;99.40;;;;;;4934624;29;20039;-51
2022/08/15 08:24:27;;;;;;;6.40;2.40;;;26.30;97.70;;;;;;4925378;29;20170;-54
2022/08/15 08:27:04;;;;;;;2.83;2.45;;;27.00;96.60;;;;;;4932661;29;20039;-50
2022/08/15 08:29:40;;;;;;;3.20;2.22;;;27.40;95.80;;;;;;4943735;29;20030;-54
2022/08/15 08:32:13;;;;;;;3.45;2.35;;;28.00;95.10;;;;;;4954881;28;20044;-49
2022/08/15 08:35:05;;;;;;;7.95;2.40;;;29.10;93.50;;;;;;4938820;28;20437;-51
2022/08/15 08:37:50;;;;;;;4.68;2.45;;;29.50;91.60;;;;;;4953289;29;20099;-50
2022/08/15 08:43:58;;;;;;;9.00;3.00;;;29.40;90.80;;;;;;4953165;29;20090;-49
2022/08/15 08:46:50;;;;;;;4.90;2.10;;;29.10;91.00;;;;;;4934570;29;20086;-53
2022/08/15 08:49:31;;;;;;;4.03;2.20;;;28.70;91.20;;;;;;4948401;29;20032;-50
2022/08/15 08:52:24;;;;;;;3.55;2.30;;;27.90;91.50;;;;;;4947385;29;20031;-50
2022/08/15 08:55:15;;;;;;;6.70;2.35;;;27.20;92.30;;;;;;4953139;28;20077;-51
2022/08/15 08:57:48;;;;;;;3.50;2.40;;;26.00;94.20;;;;;;4952889;28;20497;-50
2022/08/15 09:00:22;;;;;;;6.03;2.20;;;25.40;95.60;;;;;;4953491;28;20039;-48
2022/08/15 09:03:02;;;;;;;3.42;2.35;;;24.80;96.50;;;;;;4953233;28;20063;-51
2022/08/15 09:05:36;;;;;;;5.93;2.28;;;24.40;97.70;;;;;;4953323;28;20042;-52
2022/08/15 09:08:12;;;;;;;2.55;2.35;;;24.10;98.10;;;;;;4953338;28;20106;-47
2022/08/15 09:10:41;;;;;;;2.75;2.20;;;23.90;98.70;;;;;;4953571;28;20125;-46
2022/08/15 09:15:57;;;;;;;4.20;2.28;;;23.90;99.00;;;;;;4939132;29;20034;-50
2022/08/15 09:18:30;;;;;;;7.53;2.95;;;24.00;99.00;;;;;;4934151;29;20090;-48
2022/08/15 09:20:57;;;;;;;2.80;2.58;;;24.10;99.10;;;;;;4934249;29;20031;-49
2022/08/15 09:23:24;;;;;;;3.80;2.60;;;24.20;98.40;;;;;;4933886;29;20401;-48
2022/08/15 09:26:02;;;;;;;3.58;2.40;;;24.00;98.60;;;;;;4938231;28;20023;-53
2022/08/15 09:28:37;;;;;;;20.08;12.57;;;24.00;98.90;;;;;;4953124;28;20031;-52
2022/08/15 09:31:12;;;;;;;61.85;45.67;;;24.10;98.60;;;;;;4953121;28;20504;-47
2022/08/15 09:34:21;;;;;;;4.10;2.85;;;24.30;98.60;;;;;;4952823;29;20077;-50
2022/08/15 09:37:08;;;;;;;7.50;2.10;;;24.80;97.80;;;;;;4953238;28;20035;-51
2022/08/15 09:39:47;;;;;;;6.95;2.22;;;25.30;96.70;;;;;;4953132;28;20042;-49
2022/08/15 09:42:28;;;;;;;6.28;2.30;;;25.60;96.50;;;;;;4952916;28;20030;-48
2022/08/15 09:45:21;;;;;;;4.50;2.22;;;25.40;96.20;;;;;;4952968;28;20031;-51
2022/08/15 09:48:07;;;;;;;3.25;2.30;;;25.40;96.80;;;;;;4956556;28;20047;-55
2022/08/15 09:50:52;;;;;;;3.47;2.10;;;25.80;96.30;;;;;;4940645;29;20031;-50
2022/08/15 09:53:41;;;;;;;7.20;2.38;;;26.00;95.90;;;;;;4955314;29;20130;-52
2022/08/15 09:56:16;;;;;;;2.78;2.10;;;26.20;95.20;;;;;;4956179;28;20035;-50
2022/08/15 09:58:57;;;;;;;2.47;2.20;;;26.30;95.10;;;;;;4953934;29;20031;-53
2022/08/15 10:01:28;;;;;;;4.65;1.90;;;26.70;94.30;;;;;;4956153;28;20086;-54
2022/08/15 10:04:09;;;;;;;2.20;1.98;;;26.70;93.50;;;;;;4956097;28;20030;-54
2022/08/15 10:07:02;;;;;;;5.40;2.40;;;26.90;93.60;;;;;;4956419;28;20023;-49
2022/08/15 10:09:27;;;;;;;5.25;2.20;;;27.00;93.10;;;;;;4955804;29;20039;-53
2022/08/15 10:12:09;;;;;;;5.85;1.75;;;26.90;93.10;;;;;;4955697;29;20023;-51
2022/08/15 10:14:47;;;;;;;2.67;2.10;;;27.00;93.00;;;;;;4956044;28;20019;-55
2022/08/15 10:17:34;;;;;;;3.13;2.65;;;26.90;92.80;;;;;;4955658;29;20031;-54
2022/08/15 10:20:22;;;;;;;4.03;2.55;;;26.80;92.70;;;;;;4954431;29;20030;-53
2022/08/15 10:23:00;;;;;;;2.15;2.00;;;26.60;92.70;;;;;;4944716;29;20039;-51
2022/08/15 10:25:30;;;;;;;6.68;3.63;;;26.40;93.00;;;;;;4955686;28;20029;-55
2022/08/15 10:28:05;;;;;;;2.28;2.00;;;26.20;93.50;;;;;;4955642;28;20043;-53
2022/08/15 10:30:34;;;;;;;2.60;2.17;;;25.80;93.90;;;;;;4955286;28;20034;-56
2022/08/15 10:33:01;;;;;;;4.47;3.10;;;25.80;93.90;;;;;;4954226;28;20031;-54
2022/08/15 10:35:44;;;;;;;2.50;2.30;;;25.80;93.90;;;;;;4953739;28;20020;-53
2022/08/15 10:38:13;;;;;;;4.25;2.20;;;25.70;93.90;;;;;;4954217;28;20034;-57
2022/08/15 10:41:10;;;;;;;2.15;2.00;;;25.60;93.20;;;;;;4954192;28;20015;-50
2022/08/15 10:43:48;;;;;;;5.68;3.70;;;25.70;93.20;;;;;;4954222;29;20023;-54
2022/08/15 10:46:22;;;;;;;5.53;2.90;;;25.70;93.40;;;;;;4954255;28;20428;-51
2022/08/15 10:49:03;;;;;;;3.15;2.75;;;25.90;93.00;;;;;;4954862;29;20037;-54
2022/08/15 10:52:01;;;;;;;6.80;3.10;;;26.10;93.00;;;;;;4954810;28;20023;-52
2022/08/15 10:54:32;;;;;;;4.47;2.85;;;26.20;93.20;;;;;;4955369;28;20097;-49
2022/08/15 10:56:58;;;;;;;9.63;3.78;;;26.30;93.10;;;;;;4952457;28;20023;-52
2022/08/15 10:59:35;;;;;;;5.20;2.83;;;26.30;93.10;;;;;;4955336;28;20027;-52
2022/08/15 11:02:17;;;;;;;4.57;2.40;;;26.40;92.80;;;;;;4954632;28;20396;-50
2022/08/15 11:04:43;;;;;;;5.63;2.72;;;26.40;92.80;;;;;;4954953;28;20024;-55
2022/08/15 11:07:16;;;;;;;2.42;2.20;;;26.70;93.00;;;;;;4954874;28;20493;-54
2022/08/15 11:09:49;;;;;;;6.65;2.30;;;26.80;91.30;;;;;;4953600;29;20077;-49
2022/08/15 11:12:19;;;;;;;8.48;2.80;;;26.90;91.90;;;;;;4954360;28;20270;-51
2022/08/15 11:14:52;;;;;;;2.80;2.60;;;26.60;92.00;;;;;;4954851;28;20503;-52
2022/08/15 11:17:23;;;;;;;4.18;2.72;;;26.50;92.30;;;;;;4954869;28;20031;-54
2022/08/15 11:19:51;;;;;;;3.30;3.00;;;26.30;92.50;;;;;;4953497;29;20027;-54
2022/08/15 11:22:37;;;;;;;5.63;3.33;;;26.30;92.60;;;;;;4954157;28;20091;-54
2022/08/15 11:25:12;;;;;;;6.55;3.60;;;26.40;92.80;;;;;;4954430;28;20366;-53
2022/08/15 11:27:38;;;;;;;8.55;3.47;;;26.40;92.70;;;;;;4954539;28;20043;-55
2022/08/15 11:30:06;;;;;;;3.33;2.75;;;26.40;92.70;;;;;;4954138;29;20034;-54
2022/08/15 11:32:35;;;;;;;7.97;3.50;;;26.30;92.80;;;;;;4953569;29;20031;-51
2022/08/15 11:35:18;;;;;;;7.03;4.78;;;26.20;93.20;;;;;;4953987;28;20031;-51
2022/08/15 11:37:44;;;;;;;5.15;4.65;;;25.90;94.90;;;;;;4953321;29;20420;-51
2022/08/15 11:40:32;;;;;;;9.05;5.15;;;25.30;96.90;;;;;;4953095;29;20031;-49
2022/08/15 11:43:01;;;;;;;8.55;4.90;;;24.60;98.90;;;;;;4934695;29;20390;-50
2022/08/15 11:45:43;;;;;;;5.80;4.32;;;24.20;99.90;;;;;;4933781;29;20043;-52
2022/08/15 11:48:12;;;;;;;10.27;4.80;;;23.90;99.90;;;;;;4943376;29;20039;-52
2022/08/15 11:50:40;;;;;;;4.70;3.70;;;23.70;99.90;;;;;;4950747;28;20043;-49
2022/08/15 11:53:09;;;;;;;10.25;4.68;;;23.40;99.90;;;;;;4953338;28;20023;-49
2022/08/15 11:55:40;;;;;;;11.73;4.85;;;23.20;99.90;;;;;;4952869;28;20027;-53
2022/08/15 11:58:11;;;;;;;14.55;5.70;;;22.80;99.90;;;;;;4953971;29;20015;-51
2022/08/15 12:00:37;;;;;;;19.25;5.65;;;22.40;99.90;;;;;;4953502;29;20039;-53
2022/08/15 12:03:23;;;;;;;14.07;4.82;;;22.20;99.90;;;;;;4953937;29;20022;-47
2022/08/15 12:05:55;;;;;;;16.42;5.50;;;21.80;99.90;;;;;;4953244;29;20038;-50
2022/08/15 12:08:32;;;;;;;12.05;6.60;;;21.50;99.90;;;;;;4953100;28;20158;-52
2022/08/15 12:11:06;;;;;;;14.48;5.65;;;21.30;99.90;;;;;;4953568;28;20054;-52
2022/08/15 12:13:32;;;;;;;12.55;5.25;;;21.20;99.90;;;;;;4954465;28;20028;-46
2022/08/15 12:15:58;;;;;;;12.25;4.63;;;21.10;99.90;;;;;;4966413;28;20623;-47
2022/08/15 12:18:24;;;;;;;9.55;4.88;;;21.00;99.90;;;;;;4954124;28;20023;-49
2022/08/15 12:20:55;;;;;;;13.85;8.77;;;21.10;99.90;;;;;;4953276;28;20019;-46
2022/08/15 12:23:37;;;;;;;10.93;5.20;;;21.40;99.90;;;;;;4953573;28;20111;-49
2022/08/15 12:26:14;;;;;;;7.68;4.03;;;21.60;99.90;;;;;;4953515;28;20034;-51
2022/08/15 12:28:42;;;;;;;5.80;4.00;;;21.90;99.90;;;;;;4954028;28;20103;-48
2022/08/15 12:31:22;;;;;;;5.22;3.80;;;22.10;99.90;;;;;;4953340;28;20031;-50
2022/08/15 12:33:59;;;;;;;5.82;4.60;;;22.40;99.90;;;;;;4953708;28;20035;-47
2022/08/15 12:36:25;;;;;;;4.40;4.00;;;22.80;99.90;;;;;;4953108;28;20049;-47
2022/08/15 12:38:50;;;;;;;7.05;3.90;;;23.10;99.90;;;;;;4953322;29;20397;-51
2022/08/15 12:41:15;;;;;;;5.85;3.90;;;23.30;99.90;;;;;;4952873;29;20038;-46
2022/08/15 12:43:41;;;;;;;4.75;4.30;;;23.40;99.90;;;;;;4952258;29;20026;-46
2022/08/15 12:46:08;;;;;;;3.95;3.65;;;23.40;99.90;;;;;;4953454;28;20527;-44
2022/08/15 12:48:34;;;;;;;6.30;3.88;;;23.30;99.90;;;;;;4953797;29;20381;-46
2022/08/15 12:51:01;;;;;;;5.60;3.50;;;23.30;99.90;;;;;;4952981;28;20019;-45
2022/08/15 12:53:27;;;;;;;3.92;3.45;;;23.30;99.90;;;;;;4953085;28;20027;-48
2022/08/15 12:55:52;;;;;;;3.35;2.60;;;23.40;99.90;;;;;;4953524;28;20032;-50
2022/08/15 12:58:19;;;;;;;3.00;2.45;;;23.60;99.90;;;;;;4953308;29;20031;-49
2022/08/15 13:00:47;;;;;;;2.53;2.30;;;23.70;99.90;;;;;;4953369;29;20024;-50
2022/08/15 13:03:21;;;;;;;2.20;2.05;;;23.80;99.90;;;;;;4952947;28;20094;-52
2022/08/15 13:05:55;;;;;;;2.80;2.20;;;23.90;99.90;;;;;;4953196;28;20027;-47
2022/08/15 13:08:20;;;;;;;2.45;2.30;;;23.90;99.90;;;;;;4953302;28;20031;-46
2022/08/15 13:10:46;;;;;;;2.53;2.42;;;23.90;99.90;;;;;;4953489;29;20209;-46
2022/08/15 13:13:12;;;;;;;2.40;2.20;;;23.90;99.90;;;;;;4953177;29;20505;-48
2022/08/15 13:15:38;;;;;;;3.08;2.22;;;23.90;99.90;;;;;;4953250;28;20103;-46
2022/08/15 13:18:04;;;;;;;3.45;2.08;;;23.90;99.90;;;;;;4953467;28;20162;-46
2022/08/15 13:25:59;;;;;;;2.70;1.60;;;24.10;99.90;;;;;;4957291;29;20078;-47
2022/08/15 13:28:25;;;;;;;1.45;1.40;;;24.20;99.90;;;;;;4957087;29;20473;-48
2022/08/15 13:30:51;;;;;;;1.52;1.40;;;24.20;99.90;;;;;;4956920;29;20063;-49